createdAt,value
2019-05-30T00:00:32.076Z,98539.65
2019-05-30T00:02:33.940Z,98532.89
2019-05-30T00:04:36.003Z,98539.33
2019-05-30T00:06:37.639Z,98536.82
2019-05-30T00:08:39.286Z,98540.70
2019-05-30T00:10:40.866Z,98534.73
2019-05-30T00:12:42.497Z,98539.85
2019-05-30T00:14:44.125Z,98533.08
2019-05-30T00:16:45.699Z,98533.46
2019-05-30T00:18:47.356Z,98524.55
2019-05-30T00:20:49.090Z,98534.41
2019-05-30T00:22:50.856Z,98531.48
2019-05-30T00:24:52.516Z,98535.37
2019-05-30T00:26:54.166Z,98525.56
2019-05-30T00:28:56.202Z,98531.01
2019-05-30T00:30:58.331Z,98530.95
2019-05-30T00:33:00.582Z,98534.36
2019-05-30T00:35:02.056Z,98538.20
2019-05-30T00:37:04.107Z,98533.94
2019-05-30T00:39:06.520Z,98533.08
2019-05-30T00:41:07.166Z,98533.04
2019-05-30T00:43:08.762Z,98533.50
2019-05-30T00:45:20.465Z,98536.06
2019-05-30T00:47:12.366Z,98531.42
2019-05-30T00:49:14.162Z,98534.84
2019-05-30T00:51:15.799Z,98537.82
2019-05-30T00:53:17.521Z,98541.23
2019-05-30T00:55:19.287Z,98541.23
2019-05-30T00:57:21.166Z,98533.58
2019-05-30T00:59:23.457Z,98537.87
2019-05-30T01:01:25.086Z,98534.95
2019-05-30T01:03:26.718Z,98535.89
2019-05-30T01:05:28.346Z,98538.45
2019-05-30T01:07:29.973Z,98537.98
2019-05-30T01:09:31.607Z,98537.97
2019-05-30T01:11:33.230Z,98530.25
2019-05-30T01:13:34.810Z,98535.33
2019-05-30T01:15:36.443Z,98534.05
2019-05-30T01:17:38.098Z,98533.14
2019-05-30T01:19:39.888Z,98539.00
2019-05-30T01:21:41.466Z,98537.72
2019-05-30T01:23:43.996Z,98538.95
2019-05-30T01:25:45.633Z,98537.68
2019-05-30T01:27:47.405Z,98535.12
2019-05-30T01:29:49.033Z,98536.02
2019-05-30T01:31:50.629Z,98530.47
2019-05-30T01:33:52.258Z,98533.88
2019-05-30T01:35:53.852Z,98535.49
2019-05-30T01:37:55.527Z,98536.63
2019-05-30T01:39:57.699Z,98530.13
2019-05-30T01:41:59.719Z,98531.78
2019-05-30T01:44:00.534Z,98527.03
2019-05-30T01:46:02.184Z,98534.30
2019-05-30T01:48:04.694Z,98533.44
2019-05-30T01:50:06.513Z,98529.60
2019-05-30T01:52:07.187Z,98527.88
2019-05-30T01:54:08.958Z,98535.94
2019-05-30T01:56:10.613Z,98534.66
2019-05-30T01:58:12.307Z,98534.14
2019-05-30T02:00:20.530Z,98542.13
2019-05-30T02:02:16.630Z,98538.50
2019-05-30T02:04:18.959Z,98534.39
2019-05-30T02:06:20.581Z,98535.13
2019-05-30T02:08:22.169Z,98535.47
2019-05-30T02:10:23.884Z,98540.92
2019-05-30T02:12:25.458Z,98538.67
2019-05-30T02:14:27.122Z,98538.67
2019-05-30T02:16:28.723Z,98536.91
2019-05-30T02:18:30.324Z,98539.83
2019-05-30T02:20:32.772Z,98536.41
2019-05-30T02:22:34.419Z,98534.28
2019-05-30T02:24:36.091Z,98532.63
2019-05-30T02:26:37.714Z,98541.64
2019-05-30T02:28:39.350Z,98541.29
2019-05-30T02:30:41.363Z,98538.34
2019-05-30T02:32:43.010Z,98538.84
2019-05-30T02:34:44.618Z,98542.31
2019-05-30T02:36:46.259Z,98548.72
2019-05-30T02:38:48.162Z,98545.28
2019-05-30T02:40:49.915Z,98549.70
2019-05-30T02:42:51.794Z,98551.83
2019-05-30T02:44:53.422Z,98546.39
2019-05-30T02:46:55.143Z,98554.50
2019-05-30T02:48:59.268Z,98557.06
2019-05-30T02:50:58.468Z,98554.98
2019-05-30T02:53:01.246Z,98556.73
2019-05-30T02:55:03.927Z,98560.20
2019-05-30T02:57:05.554Z,98554.28
2019-05-30T02:59:08.574Z,98563.24
2019-05-30T03:01:09.163Z,98567.55
2019-05-30T03:03:12.342Z,98568.55
2019-05-30T03:05:14.124Z,98569.92
2019-05-30T03:07:13.296Z,98569.46
2019-05-30T03:09:15.682Z,98572.44
2019-05-30T03:11:17.377Z,98575.00
2019-05-30T03:13:19.163Z,98583.58
2019-05-30T03:15:21.035Z,98578.92
2019-05-30T03:17:22.673Z,98584.44
2019-05-30T03:19:24.486Z,98585.23
2019-05-30T03:21:26.366Z,98587.38
2019-05-30T03:23:28.014Z,98587.36
2019-05-30T03:25:29.711Z,98585.98
2019-05-30T03:27:31.488Z,98590.58
2019-05-30T03:29:33.119Z,98593.41
2019-05-30T03:31:34.785Z,98600.58
2019-05-30T03:33:41.368Z,98598.30
2019-05-30T03:35:42.724Z,98603.31
2019-05-30T03:37:39.847Z,98605.38
2019-05-30T03:39:41.472Z,98604.06
2019-05-30T03:41:43.071Z,98609.03
2019-05-30T03:43:44.673Z,98606.70
2019-05-30T03:45:46.596Z,98604.83
2019-05-30T03:47:48.226Z,98613.33
2019-05-30T03:49:49.905Z,98609.90
2019-05-30T03:51:51.556Z,98603.39
2019-05-30T03:53:53.190Z,98607.50
2019-05-30T03:55:55.454Z,98601.94
2019-05-30T03:57:57.105Z,98612.23
2019-05-30T03:59:58.789Z,98612.25
2019-05-30T04:02:00.427Z,98609.32
2019-05-30T04:04:02.118Z,98616.67
2019-05-30T04:06:03.779Z,98614.54
2019-05-30T04:08:06.991Z,98612.89
2019-05-30T04:10:07.691Z,98617.20
2019-05-30T04:12:10.640Z,98619.78
2019-05-30T04:14:11.547Z,98609.59
2019-05-30T04:16:13.502Z,98609.95
2019-05-30T04:18:16.192Z,98607.83
2019-05-30T04:20:20.529Z,98610.81
2019-05-30T04:22:19.428Z,98616.31
2019-05-30T04:24:19.815Z,98612.52
2019-05-30T04:26:21.252Z,98616.68
2019-05-30T04:28:22.886Z,98617.53
2019-05-30T04:30:24.566Z,98614.55
2019-05-30T04:32:26.221Z,98622.23
2019-05-30T04:34:27.824Z,98612.03
2019-05-30T04:36:29.529Z,98620.16
2019-05-30T04:38:31.301Z,98623.56
2019-05-30T04:40:32.894Z,98623.56
2019-05-30T04:42:34.653Z,98620.26
2019-05-30T04:44:36.351Z,98624.95
2019-05-30T04:46:38.107Z,98624.09
2019-05-30T04:48:39.747Z,98627.09
2019-05-30T04:50:41.408Z,98624.16
2019-05-30T04:52:43.053Z,98632.31
2019-05-30T04:54:44.679Z,98631.51
2019-05-30T04:56:46.290Z,98633.59
2019-05-30T04:58:47.915Z,98630.19
2019-05-30T05:00:49.616Z,98637.01
2019-05-30T05:02:51.257Z,98636.11
2019-05-30T05:04:53.067Z,98630.98
2019-05-30T05:06:54.951Z,98636.06
2019-05-30T05:08:56.603Z,98631.78
2019-05-30T05:10:58.405Z,98631.78
2019-05-30T05:13:00.004Z,98630.46
2019-05-30T05:15:02.358Z,98629.96
2019-05-30T05:17:04.036Z,98632.80
2019-05-30T05:19:05.702Z,98631.84
2019-05-30T05:21:07.403Z,98637.74
2019-05-30T05:23:09.055Z,98636.31
2019-05-30T05:25:10.829Z,98635.81
2019-05-30T05:27:13.566Z,98634.38
2019-05-30T05:29:15.821Z,98633.39
2019-05-30T05:31:18.369Z,98637.02
2019-05-30T05:33:18.788Z,98627.16
2019-05-30T05:35:20.873Z,98639.08
2019-05-30T05:37:23.273Z,98642.84
2019-05-30T05:39:24.219Z,98641.92
2019-05-30T05:41:25.689Z,98649.12
2019-05-30T05:43:27.266Z,98647.79
2019-05-30T05:45:28.949Z,98640.59
2019-05-30T05:47:30.591Z,98642.59
2019-05-30T05:49:32.350Z,98646.39
2019-05-30T05:51:33.988Z,98657.50
2019-05-30T05:53:36.518Z,98651.94
2019-05-30T05:55:38.304Z,98651.51
2019-05-30T05:57:39.902Z,98654.25
2019-05-30T05:59:41.817Z,98646.55
2019-05-30T06:01:43.466Z,98647.06
2019-05-30T06:03:45.188Z,98654.52
2019-05-30T06:05:52.873Z,98648.72
2019-05-30T06:07:48.648Z,98651.87
2019-05-30T06:09:50.311Z,98654.08
2019-05-30T06:11:51.938Z,98653.75
2019-05-30T06:13:53.510Z,98653.81
2019-05-30T06:15:55.420Z,98656.02
2019-05-30T06:17:57.120Z,98657.33
2019-05-30T06:19:58.827Z,98662.94
2019-05-30T06:22:00.579Z,98660.81
2019-05-30T06:24:02.190Z,98667.27
2019-05-30T06:26:03.823Z,98664.28
2019-05-30T06:28:05.402Z,98664.77
2019-05-30T06:30:07.775Z,98662.64
2019-05-30T06:32:09.788Z,98669.52
2019-05-30T06:34:11.358Z,98670.80
2019-05-30T06:36:12.935Z,98667.81
2019-05-30T06:38:14.589Z,98665.73
2019-05-30T06:40:16.286Z,98665.34
2019-05-30T06:42:17.920Z,98663.27
2019-05-30T06:44:20.128Z,98671.38
2019-05-30T06:46:22.095Z,98669.25
2019-05-30T06:48:24.625Z,98669.25
2019-05-30T06:50:26.727Z,98665.89
2019-05-30T06:52:27.211Z,98664.22
2019-05-30T06:54:29.508Z,98666.16
2019-05-30T06:56:31.578Z,98669.53
2019-05-30T06:58:45.550Z,98666.63
2019-05-30T07:00:33.995Z,98679.48
2019-05-30T07:02:35.590Z,98680.34
2019-05-30T07:04:51.131Z,98675.23
2019-05-30T07:06:39.756Z,98681.20
2019-05-30T07:08:41.319Z,98678.41
2019-05-30T07:10:42.926Z,98683.91
2019-05-30T07:12:44.507Z,98680.06
2019-05-30T07:14:46.197Z,98685.84
2019-05-30T07:16:48.023Z,98693.16
2019-05-30T07:18:49.661Z,98691.28
2019-05-30T07:20:51.356Z,98695.77
2019-05-30T07:22:53.243Z,98693.09
2019-05-30T07:24:54.895Z,98690.80
2019-05-30T07:26:56.771Z,98690.73
2019-05-30T07:29:00.622Z,98695.91
2019-05-30T07:31:00.481Z,98698.21
2019-05-30T07:33:02.122Z,98700.47
2019-05-30T07:35:07.268Z,98696.70
2019-05-30T07:37:05.677Z,98698.47
2019-05-30T07:39:07.351Z,98700.23
2019-05-30T07:41:08.982Z,98696.02
2019-05-30T07:43:11.400Z,98701.16
2019-05-30T07:45:13.030Z,98703.34
2019-05-30T07:47:14.602Z,98708.47
2019-05-30T07:49:16.250Z,98699.98
2019-05-30T07:51:18.673Z,98605.09
2019-05-30T07:53:20.398Z,98702.66
2019-05-30T07:55:22.030Z,98706.98
2019-05-30T07:57:23.683Z,98703.19
2019-05-30T07:59:26.371Z,98702.77
2019-05-30T08:01:26.946Z,98698.13
2019-05-30T08:03:28.574Z,98732.82
2019-05-30T08:05:30.636Z,98702.02
2019-05-30T08:07:32.685Z,98701.22
2019-05-30T08:09:35.001Z,98699.52
2019-05-30T08:11:35.602Z,98692.30
2019-05-30T08:13:37.401Z,98660.75
2019-05-30T08:15:43.900Z,98702.56
2019-05-30T08:17:44.102Z,98695.35
2019-05-30T08:19:42.774Z,98692.41
2019-05-30T08:21:44.552Z,98695.41
2019-05-30T08:23:46.326Z,98695.08
2019-05-30T08:25:47.926Z,98695.98
2019-05-30T08:27:49.675Z,98693.86
2019-05-30T08:29:51.270Z,98689.69
2019-05-30T08:31:53.027Z,98678.16
2019-05-30T08:33:55.052Z,98682.47
2019-05-30T08:35:56.670Z,98685.48
2019-05-30T08:37:58.274Z,98686.37
2019-05-30T08:39:59.931Z,98685.95
2019-05-30T08:42:02.305Z,98690.69
2019-05-30T08:44:03.954Z,98686.02
2019-05-30T08:46:05.621Z,98688.19
2019-05-30T08:48:07.440Z,98681.83
2019-05-30T08:50:09.021Z,98692.94
2019-05-30T08:52:10.681Z,98690.42
2019-05-30T08:54:13.859Z,98685.31
2019-05-30T08:56:13.969Z,98682.33
2019-05-30T08:58:15.566Z,98691.34
2019-05-30T09:00:17.381Z,98689.27
2019-05-30T09:02:19.023Z,98691.44
2019-05-30T09:04:21.364Z,98688.83
2019-05-30T09:06:23.035Z,98686.64
2019-05-30T09:08:24.631Z,98686.66
2019-05-30T09:10:26.268Z,98682.36
2019-05-30T09:12:27.871Z,98681.03
2019-05-30T09:14:29.531Z,98681.05
2019-05-30T09:16:31.555Z,98675.38
2019-05-30T09:18:33.187Z,98677.84
2019-05-30T09:20:34.810Z,98680.02
2019-05-30T09:22:37.978Z,98678.32
2019-05-30T09:24:39.294Z,98675.77
2019-05-30T09:26:44.173Z,98678.33
2019-05-30T09:28:42.237Z,98672.82
2019-05-30T09:30:44.662Z,98665.52
2019-05-30T09:32:45.311Z,98671.44
2019-05-30T09:34:47.121Z,98666.69
2019-05-30T09:36:49.137Z,98673.47
2019-05-30T09:38:51.233Z,98667.44
2019-05-30T09:40:52.839Z,98669.63
2019-05-30T09:42:54.584Z,98661.19
2019-05-30T09:44:56.357Z,98662.58
2019-05-30T09:46:58.007Z,98658.05
2019-05-30T09:48:59.807Z,98657.72
2019-05-30T09:51:01.449Z,98656.45
2019-05-30T09:53:03.033Z,98662.80
2019-05-30T09:55:04.632Z,98658.89
2019-05-30T09:57:06.294Z,98655.92
2019-05-30T09:59:07.930Z,98656.77
2019-05-30T10:01:09.750Z,98652.17
2019-05-30T10:03:11.735Z,98648.33
2019-05-30T10:05:13.418Z,98652.98
2019-05-30T10:07:15.055Z,98688.88
2019-05-30T10:09:16.707Z,98645.83
2019-05-30T10:11:18.526Z,98647.59
2019-05-30T10:13:20.200Z,98645.88
2019-05-30T10:15:21.894Z,98645.08
2019-05-30T10:17:23.517Z,98643.90
2019-05-30T10:19:25.807Z,98646.97
2019-05-30T10:21:27.443Z,98640.52
2019-05-30T10:23:29.023Z,98636.63
2019-05-30T10:25:31.163Z,98643.96
2019-05-30T10:27:32.831Z,98642.23
2019-05-30T10:29:34.725Z,98638.58
2019-05-30T10:31:36.378Z,98639.20
2019-05-30T10:33:38.006Z,98637.64
2019-05-30T10:35:39.632Z,98641.53
2019-05-30T10:37:41.204Z,98639.83
2019-05-30T10:39:43.195Z,98633.33
2019-05-30T10:41:45.936Z,98636.84
2019-05-30T10:43:47.436Z,98635.03
2019-05-30T10:45:49.498Z,98634.92
2019-05-30T10:47:51.233Z,98630.67
2019-05-30T10:49:51.975Z,98630.23
2019-05-30T10:51:57.523Z,98625.50
2019-05-30T10:53:55.729Z,98630.99
2019-05-30T10:55:57.252Z,98629.55
2019-05-30T10:57:59.681Z,98628.65
2019-05-30T11:00:00.852Z,98631.14
2019-05-30T11:02:02.468Z,98587.19
2019-05-30T11:04:04.203Z,98619.64
2019-05-30T11:06:06.084Z,98621.72
2019-05-30T11:08:07.858Z,98613.60
2019-05-30T11:10:09.530Z,98611.91
2019-05-30T11:12:11.106Z,98609.35
2019-05-30T11:14:12.730Z,98608.22
2019-05-30T11:16:14.382Z,98609.44
2019-05-30T11:18:15.954Z,98607.27
2019-05-30T11:20:17.688Z,98607.27
2019-05-30T11:22:19.323Z,98607.66
2019-05-30T11:24:20.923Z,98623.41
2019-05-30T11:26:22.614Z,98611.89
2019-05-30T11:28:24.283Z,98606.83
2019-05-30T11:30:25.967Z,98606.98
2019-05-30T11:32:27.593Z,98605.61
2019-05-30T11:34:29.222Z,98601.28
2019-05-30T11:36:30.860Z,98606.08
2019-05-30T11:38:32.530Z,98601.39
2019-05-30T11:40:34.147Z,98600.54
2019-05-30T11:42:35.810Z,98597.55
2019-05-30T11:44:37.680Z,98598.46
2019-05-30T11:46:39.315Z,98595.20
2019-05-30T11:48:40.943Z,98587.23
2019-05-30T11:50:43.319Z,98580.95
2019-05-30T11:52:45.502Z,98579.61
2019-05-30T11:54:47.203Z,98580.91
2019-05-30T11:56:49.930Z,98580.91
2019-05-30T11:58:50.458Z,98576.20
2019-05-30T12:00:53.182Z,98574.13
2019-05-30T12:02:54.351Z,98568.68
2019-05-30T12:04:56.558Z,98569.20
2019-05-30T12:06:57.338Z,98562.81
2019-05-30T12:08:59.036Z,98563.56
2019-05-30T12:11:01.395Z,98556.20
2019-05-30T12:13:02.343Z,98560.95
2019-05-30T12:15:03.978Z,98550.23
2019-05-30T12:17:05.580Z,98543.78
2019-05-30T12:19:07.158Z,98541.97
2019-05-30T12:21:09.403Z,98546.28
2019-05-30T12:23:11.224Z,98538.19
2019-05-30T12:25:12.901Z,98541.17
2019-05-30T12:27:14.767Z,98542.03
2019-05-30T12:29:16.399Z,98541.64
2019-05-30T12:31:17.983Z,98532.27
2019-05-30T12:33:19.663Z,98540.36
2019-05-30T12:35:21.290Z,98535.63
2019-05-30T12:37:23.595Z,98531.73
2019-05-30T12:39:24.724Z,98534.72
2019-05-30T12:41:26.302Z,98531.30
2019-05-30T12:43:28.319Z,98528.64
2019-05-30T12:45:30.588Z,98526.83
2019-05-30T12:47:32.443Z,98528.52
2019-05-30T12:49:34.094Z,98523.16
2019-05-30T12:51:36.348Z,98526.29
2019-05-30T12:53:37.984Z,98522.98
2019-05-30T12:55:39.631Z,98522.98
2019-05-30T12:57:41.226Z,98525.13
2019-05-30T12:59:43.004Z,98526.88
2019-05-30T13:01:44.671Z,98519.68
2019-05-30T13:03:46.321Z,98522.67
2019-05-30T13:05:47.988Z,98523.62
2019-05-30T13:07:49.610Z,98521.48
2019-05-30T13:09:51.270Z,98525.75
2019-05-30T13:11:54.195Z,98515.14
2019-05-30T13:13:55.113Z,98522.78
2019-05-30T13:15:56.526Z,98520.32
2019-05-30T13:17:58.841Z,98516.41
2019-05-30T13:20:01.434Z,98508.01
2019-05-30T13:22:03.370Z,98514.03
2019-05-30T13:24:04.223Z,98512.47
2019-05-30T13:26:05.967Z,98516.63
2019-05-30T13:28:08.637Z,98517.43
2019-05-30T13:30:09.618Z,98510.55
2019-05-30T13:32:12.062Z,98511.35
2019-05-30T13:34:13.690Z,98512.63
2019-05-30T13:36:15.351Z,98507.56
2019-05-30T13:38:25.977Z,98508.89
2019-05-30T13:40:24.882Z,98514.45
2019-05-30T13:42:20.398Z,98510.61
2019-05-30T13:44:22.025Z,98516.91
2019-05-30T13:46:23.658Z,98512.50
2019-05-30T13:48:25.321Z,98511.23
2019-05-30T13:50:26.991Z,98512.09
2019-05-30T13:52:28.626Z,98510.44
2019-05-30T13:54:30.340Z,98509.16
2019-05-30T13:56:31.988Z,98501.48
2019-05-30T13:58:33.641Z,98504.93
2019-05-30T14:00:35.223Z,98501.97
2019-05-30T14:02:36.887Z,98499.95
2019-05-30T14:04:38.495Z,98504.27
2019-05-30T14:06:40.123Z,98499.62
2019-05-30T14:08:42.209Z,98500.05
2019-05-30T14:10:43.422Z,98499.95
2019-05-30T14:12:45.813Z,98504.26
2019-05-30T14:14:48.354Z,98506.64
2019-05-30T14:16:50.187Z,98501.16
2019-05-30T14:18:51.776Z,98509.27
2019-05-30T14:20:53.542Z,98505.91
2019-05-30T14:22:55.253Z,98503.83
2019-05-30T14:24:56.833Z,98500.05
2019-05-30T14:26:58.566Z,98507.77
2019-05-30T14:29:01.764Z,98504.39
2019-05-30T14:31:03.434Z,98504.88
2019-05-30T14:33:04.129Z,98503.55
2019-05-30T14:35:06.412Z,98499.66
2019-05-30T14:37:07.015Z,98506.86
2019-05-30T14:39:09.061Z,98506.44
2019-05-30T14:41:11.991Z,98506.90
2019-05-30T14:43:11.961Z,98506.06
2019-05-30T14:45:14.735Z,98506.52
2019-05-30T14:47:16.663Z,98503.55
2019-05-30T14:49:17.337Z,98507.85
2019-05-30T14:51:19.014Z,98498.91
2019-05-30T14:53:20.684Z,98497.25
2019-05-30T14:55:23.018Z,98497.25
2019-05-30T14:57:24.862Z,98495.59
2019-05-30T14:59:26.496Z,98501.56
2019-05-30T15:01:28.123Z,98499.89
2019-05-30T15:03:29.726Z,98497.81
2019-05-30T15:05:31.302Z,98508.04
2019-05-30T15:07:32.898Z,98495.30
2019-05-30T15:09:34.499Z,98494.88
2019-05-30T15:11:36.139Z,98496.62
2019-05-30T15:13:38.065Z,98493.22
2019-05-30T15:15:39.754Z,98490.70
2019-05-30T15:17:41.381Z,98495.39
2019-05-30T15:19:43.006Z,98501.36
2019-05-30T15:21:44.630Z,98501.41
2019-05-30T15:23:46.268Z,98498.47
2019-05-30T15:25:47.899Z,98504.86
2019-05-30T15:27:49.546Z,98492.98
2019-05-30T15:29:51.181Z,98497.23
2019-05-30T15:31:52.814Z,98498.52
2019-05-30T15:33:54.461Z,98498.98
2019-05-30T15:35:56.090Z,98496.43
2019-05-30T15:37:57.675Z,98497.28
2019-05-30T15:39:59.434Z,98495.19
2019-05-30T15:42:01.304Z,98488.85
2019-05-30T15:44:02.894Z,98491.83
2019-05-30T15:46:04.558Z,98492.30
2019-05-30T15:48:06.182Z,98490.13
2019-05-30T15:50:08.377Z,98490.17
2019-05-30T15:52:11.615Z,98486.81
2019-05-30T15:54:11.490Z,98481.70
2019-05-30T15:56:13.727Z,98488.94
2019-05-30T15:58:15.754Z,98482.98
2019-05-30T16:00:18.059Z,98480.47
2019-05-30T16:02:20.390Z,98480.47
2019-05-30T16:04:21.064Z,98480.92
2019-05-30T16:06:22.730Z,98476.25
2019-05-30T16:08:24.400Z,98481.36
2019-05-30T16:10:26.050Z,98481.40
2019-05-30T16:12:27.727Z,98481.41
2019-05-30T16:14:29.351Z,98477.58
2019-05-30T16:16:39.516Z,98478.03
2019-05-30T16:18:32.794Z,98447.17
2019-05-30T16:20:34.432Z,98477.19
2019-05-30T16:22:36.070Z,98472.55
2019-05-30T16:24:37.650Z,98474.67
2019-05-30T16:26:39.226Z,98474.25
2019-05-30T16:28:41.465Z,98470.84
2019-05-30T16:30:43.060Z,98468.76
2019-05-30T16:32:44.691Z,98471.31
2019-05-30T16:34:46.375Z,98468.33
2019-05-30T16:36:47.974Z,98466.24
2019-05-30T16:38:49.586Z,98466.25
2019-05-30T16:40:51.214Z,98460.75
2019-05-30T16:42:53.253Z,98461.60
2019-05-30T16:44:54.902Z,98463.70
2019-05-30T16:46:56.530Z,98468.39
2019-05-30T16:48:58.170Z,98464.16
2019-05-30T16:50:59.815Z,98469.28
2019-05-30T16:53:01.538Z,98473.11
2019-05-30T16:55:03.171Z,98470.17
2019-05-30T16:57:04.992Z,98467.19
2019-05-30T16:59:06.571Z,98467.62
2019-05-30T17:01:08.246Z,98465.49
2019-05-30T17:03:09.874Z,98462.55
2019-05-30T17:05:11.581Z,98464.67
2019-05-30T17:07:13.221Z,98465.53
2019-05-30T17:09:15.158Z,98466.84
2019-05-30T17:11:17.317Z,98462.16
2019-05-30T17:13:19.534Z,98464.72
2019-05-30T17:15:20.054Z,98468.13
2019-05-30T17:17:22.068Z,98464.76
2019-05-30T17:19:24.417Z,98473.70
2019-05-30T17:21:24.978Z,98474.55
2019-05-30T17:23:26.954Z,98474.98
2019-05-30T17:25:28.274Z,98472.45
2019-05-30T17:27:29.926Z,98470.37
2019-05-30T17:29:31.554Z,98481.86
2019-05-30T17:31:33.171Z,98478.88
2019-05-30T17:33:34.747Z,98481.02
2019-05-30T17:35:36.997Z,98482.29
2019-05-30T17:37:38.602Z,98484.45
2019-05-30T17:39:40.234Z,98478.50
2019-05-30T17:41:41.838Z,98485.31
2019-05-30T17:43:43.952Z,98481.09
2019-05-30T17:45:45.581Z,98481.09
2019-05-30T17:47:47.220Z,98478.53
2019-05-30T17:49:48.915Z,98483.68
2019-05-30T17:51:50.699Z,98483.68
2019-05-30T17:53:52.339Z,98482.83
2019-05-30T17:55:54.045Z,98486.66
2019-05-30T17:57:55.719Z,98487.52
2019-05-30T17:59:57.299Z,98485.85
2019-05-30T18:02:00.855Z,98490.95
2019-05-30T18:04:00.730Z,98490.11
2019-05-30T18:06:02.373Z,98493.55
2019-05-30T18:08:04.003Z,98500.36
2019-05-30T18:10:06.103Z,98497.80
2019-05-30T18:12:07.823Z,98494.40
2019-05-30T18:14:09.447Z,98495.29
2019-05-30T18:16:11.099Z,98491.92
2019-05-30T18:18:12.826Z,98494.01
2019-05-30T18:20:14.458Z,98501.24
2019-05-30T18:22:16.105Z,98503.41
2019-05-30T18:24:17.763Z,98512.34
2019-05-30T18:26:19.634Z,98507.23
2019-05-30T18:28:21.499Z,98513.62
2019-05-30T18:30:23.712Z,98508.55
2019-05-30T18:32:25.883Z,98506.84
2019-05-30T18:34:26.682Z,98506.85
2019-05-30T18:36:28.514Z,98504.33
2019-05-30T18:38:30.482Z,98508.16
2019-05-30T18:40:33.118Z,98509.02
2019-05-30T18:42:33.801Z,98504.79
2019-05-30T18:44:35.757Z,98508.63
2019-05-30T18:46:38.705Z,98508.20
2019-05-30T18:48:39.923Z,98508.20
2019-05-30T18:50:41.594Z,98503.09
2019-05-30T18:52:43.226Z,98503.91
2019-05-30T18:54:44.867Z,98502.98
2019-05-30T18:56:46.533Z,98499.94
2019-05-30T18:58:48.166Z,98502.45
2019-05-30T19:00:49.841Z,98506.13
2019-05-30T19:02:51.540Z,98505.97
2019-05-30T19:04:53.134Z,98496.94
2019-05-30T19:06:54.895Z,98500.22
2019-05-30T19:08:56.526Z,98503.50
2019-05-30T19:10:58.118Z,98501.71
2019-05-30T19:12:59.707Z,98503.72
2019-05-30T19:15:01.385Z,98503.63
2019-05-30T19:17:03.106Z,98509.97
2019-05-30T19:19:05.349Z,98510.35
2019-05-30T19:21:07.017Z,98511.67
2019-05-30T19:23:09.497Z,98512.06
2019-05-30T19:25:11.125Z,98514.19
2019-05-30T19:27:12.754Z,98515.37
2019-05-30T19:29:14.630Z,98524.23
2019-05-30T19:31:16.268Z,98516.00
2019-05-30T19:33:20.611Z,98513.39
2019-05-30T19:35:19.584Z,98513.30
2019-05-30T19:37:21.263Z,98515.77
2019-05-30T19:39:22.930Z,98517.34
2019-05-30T19:41:24.530Z,98520.72
2019-05-30T19:43:27.555Z,98520.34
2019-05-30T19:45:28.374Z,98517.80
2019-05-30T19:47:30.371Z,98514.05
2019-05-30T19:49:32.477Z,98515.28
2019-05-30T19:51:34.951Z,98513.94
2019-05-30T19:53:35.358Z,98519.44
2019-05-30T19:55:37.612Z,98517.25
2019-05-30T19:57:39.924Z,98518.39
2019-05-30T19:59:40.762Z,98519.58
2019-05-30T20:01:42.362Z,98520.00
2019-05-30T20:03:46.986Z,98518.67
2019-05-30T20:05:45.743Z,98515.19
2019-05-30T20:07:48.074Z,98514.30
2019-05-30T20:10:00.785Z,98514.34
2019-05-30T20:12:02.754Z,98514.45
2019-05-30T20:13:53.398Z,98474.47
2019-05-30T20:15:55.006Z,98519.86
2019-05-30T20:17:57.613Z,98521.14
2019-05-30T20:19:59.346Z,98524.97
2019-05-30T20:22:01.124Z,98519.48
2019-05-30T20:24:02.706Z,98525.88
2019-05-30T20:26:04.978Z,98507.71
2019-05-30T20:28:06.590Z,98516.20
2019-05-30T20:30:08.250Z,98512.52
2019-05-30T20:32:10.105Z,98509.52
2019-05-30T20:34:11.694Z,98516.91
2019-05-30T20:36:13.515Z,98514.94
2019-05-30T20:38:15.121Z,98522.16
2019-05-30T20:40:16.964Z,98530.17
2019-05-30T20:42:19.707Z,98524.25
2019-05-30T20:44:20.275Z,98520.32
2019-05-30T20:46:23.526Z,98528.02
2019-05-30T20:48:23.566Z,98519.22
2019-05-30T20:50:25.229Z,98523.92
2019-05-30T20:52:27.138Z,98525.13
2019-05-30T20:54:28.782Z,98529.53
2019-05-30T20:56:30.392Z,98525.80
2019-05-30T20:58:31.990Z,98524.88
2019-05-30T21:00:33.850Z,98526.16
2019-05-30T21:02:36.565Z,98520.00
2019-05-30T21:04:37.338Z,98529.03
2019-05-30T21:06:39.079Z,98544.41
2019-05-30T21:08:41.268Z,98527.22
2019-05-30T21:10:43.223Z,98520.81
2019-05-30T21:12:46.886Z,98519.28
2019-05-30T21:14:46.170Z,98517.77
2019-05-30T21:16:47.747Z,98518.05
2019-05-30T21:18:49.426Z,98520.43
2019-05-30T21:20:52.005Z,98524.35
2019-05-30T21:22:53.700Z,98526.91
2019-05-30T21:24:55.574Z,98520.86
2019-05-30T21:26:57.351Z,98520.27
2019-05-30T21:28:59.127Z,98523.62
2019-05-30T21:31:00.795Z,98519.84
2019-05-30T21:33:03.216Z,98526.73
2019-05-30T21:35:04.960Z,98526.77
2019-05-30T21:37:06.639Z,98511.65
2019-05-30T21:39:08.520Z,98522.09
2019-05-30T21:41:10.161Z,98523.41
2019-05-30T21:43:11.834Z,98527.46
2019-05-30T21:45:13.645Z,98531.67
2019-05-30T21:47:15.311Z,98523.50
2019-05-30T21:49:16.994Z,98530.27
2019-05-30T21:51:18.624Z,98530.45
2019-05-30T21:53:20.344Z,98533.23
2019-05-30T21:55:21.924Z,98529.50
2019-05-30T21:57:23.802Z,98540.37
2019-05-30T21:59:25.462Z,98532.38
2019-05-30T22:01:27.075Z,98536.75
2019-05-30T22:03:28.702Z,98536.00
2019-05-30T22:05:30.365Z,98529.70
2019-05-30T22:07:32.061Z,98529.37
2019-05-30T22:09:33.736Z,98529.48
2019-05-30T22:11:35.362Z,98529.11
2019-05-30T22:13:37.181Z,98533.89
2019-05-30T22:15:39.011Z,98537.34
2019-05-30T22:17:41.723Z,98527.17
2019-05-30T22:19:42.319Z,98524.29
2019-05-30T22:21:44.163Z,98523.91
2019-05-30T22:23:46.237Z,98524.38
2019-05-30T22:25:48.233Z,98519.73
2019-05-30T22:27:48.938Z,98521.91
2019-05-30T22:29:50.683Z,98526.23
2019-05-30T22:31:53.472Z,98527.16
2019-05-30T22:33:54.027Z,98527.17
2019-05-30T22:35:55.701Z,98526.78
2019-05-30T22:37:57.279Z,98525.52
2019-05-30T22:39:58.884Z,98529.39
2019-05-30T22:42:00.607Z,98532.38
2019-05-30T22:44:02.262Z,98528.50
2019-05-30T22:46:03.854Z,98523.00
2019-05-30T22:48:05.537Z,98525.13
2019-05-30T22:50:07.138Z,98522.58
2019-05-30T22:52:08.774Z,98523.00
2019-05-30T22:54:10.402Z,98526.41
2019-05-30T22:56:12.130Z,98533.69
2019-05-30T22:58:13.907Z,98535.82
2019-05-30T23:00:15.530Z,98534.12
2019-05-30T23:02:17.445Z,98525.61
2019-05-30T23:04:19.086Z,98527.34
2019-05-30T23:06:20.759Z,98536.30
2019-05-30T23:08:22.381Z,98529.52
2019-05-30T23:10:24.054Z,98532.08
2019-05-30T23:12:25.656Z,98531.69
2019-05-30T23:14:27.268Z,98528.29
2019-05-30T23:16:28.882Z,98528.29
2019-05-30T23:18:30.539Z,98528.29
2019-05-30T23:20:32.218Z,98526.59
2019-05-30T23:22:33.994Z,98532.98
2019-05-30T23:24:35.594Z,98530.03
2019-05-30T23:26:37.232Z,98532.16
2019-05-30T23:28:38.860Z,98530.89
2019-05-30T23:30:40.485Z,98531.31
2019-05-30T23:32:42.157Z,98529.19
2019-05-30T23:34:43.806Z,98533.06
2019-05-30T23:36:45.507Z,98539.03
2019-05-30T23:38:47.090Z,98533.15
2019-05-30T23:40:48.983Z,98535.66
2019-05-30T23:42:50.999Z,98541.67
2019-05-30T23:44:53.269Z,98540.39
2019-05-30T23:46:53.907Z,98537.80
2019-05-30T23:48:55.816Z,98536.81